createdAt,value
2022-08-28T00:01:42.117Z,35.81
2022-08-28T00:02:58.452Z,35.63
2022-08-28T00:04:25.075Z,35.63
2022-08-28T00:05:33.448Z,35.65
2022-08-28T00:06:43.193Z,35.55
2022-08-28T00:07:56.581Z,35.51
2022-08-28T00:09:11.952Z,35.47
2022-08-28T00:10:22.411Z,35.43
2022-08-28T00:11:31.908Z,35.33
2022-08-28T00:12:42.572Z,35.18
2022-08-28T00:13:50.967Z,35.18
2022-08-28T00:15:00.097Z,35.08
2022-08-28T00:16:08.788Z,35.07
2022-08-28T00:17:16.667Z,34.86
2022-08-28T00:18:24.669Z,34.76
2022-08-28T00:19:36.645Z,34.88
2022-08-28T00:20:48.055Z,34.89
2022-08-28T00:21:58.785Z,34.66
2022-08-28T00:23:07.597Z,34.62
2022-08-28T00:24:21.611Z,34.63
2022-08-28T00:27:37.687Z,34.44
2022-08-28T00:28:59.121Z,34.20
2022-08-28T00:30:24.811Z,34.30
2022-08-28T00:31:42.341Z,34.09
2022-08-28T00:32:55.030Z,34.15
2022-08-28T00:34:04.571Z,34.06
2022-08-28T00:35:13.856Z,34.17
2022-08-28T00:36:22.845Z,34.24
2022-08-28T00:37:33.524Z,34.17
2022-08-28T00:38:41.366Z,34.06
2022-08-28T00:39:50.783Z,34.01
2022-08-28T00:41:01.289Z,34.01
2022-08-28T00:42:11.927Z,34.13
2022-08-28T00:43:35.180Z,34.20
2022-08-28T00:44:43.814Z,34.16
2022-08-28T00:45:53.812Z,34.07
2022-08-28T00:47:01.530Z,34.10
2022-08-28T00:48:08.730Z,34.10
2022-08-28T00:49:17.752Z,34.06
2022-08-28T00:50:26.853Z,34.23
2022-08-28T00:51:52.810Z,34.07
2022-08-28T00:53:01.370Z,33.99
2022-08-28T00:54:09.975Z,33.89
2022-08-28T00:55:23.488Z,33.88
2022-08-28T00:56:31.217Z,33.94
2022-08-28T00:57:42.837Z,33.94
2022-08-28T00:58:52.194Z,33.91
2022-08-28T01:00:02.962Z,33.82
2022-08-28T01:01:13.298Z,33.87
2022-08-28T01:02:20.774Z,33.70
2022-08-28T01:03:29.581Z,33.65
2022-08-28T01:04:36.990Z,33.59
2022-08-28T01:05:49.276Z,33.51
2022-08-28T01:06:58.937Z,33.44
2022-08-28T01:08:08.484Z,33.36
2022-08-28T01:14:47.089Z,33.07
2022-08-28T01:15:54.167Z,33.22
2022-08-28T01:17:04.521Z,33.27
2022-08-28T01:18:17.018Z,33.31
2022-08-28T01:19:43.708Z,33.22
2022-08-28T01:21:20.194Z,33.23
2022-08-28T01:23:03.002Z,33.09
2022-08-28T01:24:16.011Z,33.14
2022-08-28T01:25:23.825Z,33.05
2022-08-28T01:26:34.501Z,32.93
2022-08-28T01:27:46.451Z,32.85
2022-08-28T01:28:55.152Z,32.78
2022-08-28T01:30:02.441Z,32.59
2022-08-28T01:31:14.113Z,32.54
2022-08-28T01:32:36.756Z,32.51
2022-08-28T01:33:47.413Z,32.42
2022-08-28T01:34:57.454Z,32.27
2022-08-28T01:36:05.320Z,32.17
2022-08-28T01:37:15.144Z,32.07
2022-08-28T01:38:26.882Z,32.10
2022-08-28T01:39:35.671Z,32.06
2022-08-28T01:40:46.714Z,32.03
2022-08-28T01:41:55.856Z,31.98
2022-08-28T01:43:25.188Z,31.84
2022-08-28T01:44:34.010Z,31.62
2022-08-28T01:45:46.294Z,31.46
2022-08-28T01:46:57.466Z,31.40
2022-08-28T01:48:08.861Z,31.33
2022-08-28T01:49:17.765Z,31.27
2022-08-28T01:50:28.485Z,31.23
2022-08-28T01:51:51.307Z,31.11
2022-08-28T01:53:12.359Z,31.01
2022-08-28T01:54:24.629Z,30.97
2022-08-28T01:55:34.998Z,30.92
2022-08-28T01:56:43.612Z,30.83
2022-08-28T01:57:57.051Z,30.73
2022-08-28T01:59:18.428Z,30.65
2022-08-28T02:00:36.829Z,30.48
2022-08-28T02:02:33.340Z,30.28
2022-08-28T02:03:58.522Z,30.09
2022-08-28T02:05:10.450Z,29.97
2022-08-28T02:06:19.070Z,29.87
2022-08-28T02:07:31.803Z,29.73
2022-08-28T02:08:39.955Z,29.53
2022-08-28T02:09:49.596Z,29.32
2022-08-28T02:10:57.419Z,29.14
2022-08-28T02:12:08.495Z,28.89
2022-08-28T02:22:11.998Z,27.48
2022-08-28T02:25:31.426Z,27.15
2022-08-28T02:27:15.392Z,27.05
2022-08-28T02:28:41.984Z,26.92
2022-08-28T02:30:01.603Z,26.82
2022-08-28T02:31:18.709Z,26.73
2022-08-28T02:34:36.876Z,26.51
2022-08-28T02:35:52.927Z,26.43
2022-08-28T02:37:01.389Z,26.37
2022-08-28T02:45:23.368Z,25.91
2022-08-28T02:46:33.390Z,25.86
2022-08-28T02:47:45.162Z,25.80
2022-08-28T02:48:54.659Z,25.75
2022-08-28T02:50:04.149Z,25.70
2022-08-28T02:51:16.261Z,25.64
2022-08-28T02:52:28.559Z,25.58
2022-08-28T02:53:38.833Z,25.53
2022-08-28T02:54:49.516Z,25.49
2022-08-28T03:00:08.543Z,25.30
2022-08-28T03:01:28.064Z,25.24
2022-08-28T03:03:16.819Z,25.21
2022-08-28T03:04:51.696Z,25.16
2022-08-28T03:06:06.220Z,25.12
2022-08-28T03:20:52.640Z,24.78
2022-08-28T03:22:07.124Z,24.77
2022-08-28T03:36:04.631Z,24.45
2022-08-28T03:37:24.914Z,24.42
2022-08-28T03:38:43.742Z,24.40
2022-08-28T03:39:54.516Z,24.38
2022-08-28T03:41:03.804Z,24.36
2022-08-28T03:44:01.738Z,24.31
2022-08-28T03:49:14.857Z,24.23
2022-08-28T03:51:45.278Z,24.20
2022-08-28T03:52:54.418Z,24.19
2022-08-28T03:54:07.243Z,24.18
2022-08-28T03:55:28.034Z,24.16
2022-08-28T03:56:39.123Z,24.15
2022-08-28T03:57:49.888Z,24.15
2022-08-28T03:59:01.540Z,24.15
2022-08-28T04:00:12.250Z,24.13
2022-08-28T04:01:20.786Z,24.12
2022-08-28T04:02:31.427Z,24.10
2022-08-28T04:03:41.594Z,24.09
2022-08-28T04:04:51.273Z,24.07
2022-08-28T04:07:46.831Z,24.03
2022-08-28T04:09:00.114Z,24.01
2022-08-28T04:10:14.222Z,24.00
2022-08-28T04:11:25.380Z,23.98
2022-08-28T04:12:35.267Z,23.95
2022-08-28T04:13:43.995Z,23.92
2022-08-28T04:14:55.550Z,23.89
2022-08-28T04:16:12.948Z,23.86
2022-08-28T04:17:21.582Z,23.83
2022-08-28T04:18:29.805Z,23.80
2022-08-28T04:19:37.423Z,23.78
2022-08-28T04:20:46.526Z,23.75
2022-08-28T04:21:55.217Z,23.73
2022-08-28T04:23:04.757Z,23.70
2022-08-28T04:24:15.222Z,23.68
2022-08-28T04:25:23.534Z,23.64
2022-08-28T04:26:38.458Z,23.61
2022-08-28T04:27:46.732Z,23.58
2022-08-28T04:28:55.080Z,23.57
2022-08-28T04:30:03.638Z,23.55
2022-08-28T04:31:13.337Z,23.54
2022-08-28T04:32:25.095Z,23.51
2022-08-28T04:33:33.369Z,23.48
2022-08-28T04:34:41.495Z,23.46
2022-08-28T04:35:49.233Z,23.43
2022-08-28T04:36:57.130Z,23.41
2022-08-28T04:38:05.758Z,23.40
2022-08-28T04:39:13.533Z,23.39
2022-08-28T04:40:21.247Z,23.38
2022-08-28T04:41:29.950Z,23.36
2022-08-28T04:42:37.915Z,23.35
2022-08-28T04:43:46.517Z,23.33
2022-08-28T04:45:02.502Z,23.31
2022-08-28T04:46:14.765Z,23.28
2022-08-28T04:47:24.748Z,23.26
2022-08-28T04:49:25.892Z,23.26
2022-08-28T04:51:42.243Z,23.26
2022-08-28T04:52:49.356Z,23.21
2022-08-28T04:53:59.639Z,23.19
2022-08-28T04:55:08.354Z,23.17
2022-08-28T04:56:29.835Z,23.16
2022-08-28T04:58:04.045Z,23.15
2022-08-28T04:59:44.891Z,23.13
2022-08-28T05:00:51.061Z,23.13
2022-08-28T05:01:58.122Z,23.13
2022-08-28T05:03:04.358Z,23.12
2022-08-28T05:04:12.527Z,23.12
2022-08-28T05:05:20.693Z,23.09
2022-08-28T05:06:32.498Z,23.06
2022-08-28T05:07:42.465Z,23.03
2022-08-28T05:11:42.562Z,22.94
2022-08-28T05:15:34.050Z,22.82
2022-08-28T05:17:06.117Z,22.78
2022-08-28T05:23:14.778Z,22.67
2022-08-28T05:24:38.814Z,22.60
2022-08-28T05:25:47.225Z,22.57
2022-08-28T05:26:53.511Z,22.54
2022-08-28T05:28:00.850Z,22.53
2022-08-28T05:29:09.735Z,22.51
2022-08-28T05:30:16.707Z,22.49
2022-08-28T05:31:24.638Z,22.48
2022-08-28T05:32:31.902Z,22.49
2022-08-28T05:33:40.630Z,22.46
2022-08-28T05:34:48.433Z,22.43
2022-08-28T05:35:58.011Z,22.40
2022-08-28T05:37:07.116Z,22.37
2022-08-28T05:38:14.456Z,22.35
2022-08-28T05:39:20.554Z,22.32
2022-08-28T05:40:27.179Z,22.28
2022-08-28T05:41:34.451Z,22.27
2022-08-28T05:42:41.671Z,22.25
2022-08-28T05:43:49.414Z,22.24
2022-08-28T05:45:01.424Z,22.23
2022-08-28T05:46:11.638Z,22.21
2022-08-28T05:47:21.635Z,22.18
2022-08-28T05:48:30.478Z,22.15
2022-08-28T05:49:44.504Z,22.11
2022-08-28T05:50:52.214Z,22.09
2022-08-28T05:51:58.274Z,22.06
2022-08-28T05:53:07.561Z,22.03
2022-08-28T05:54:15.426Z,21.99
2022-08-28T05:55:21.671Z,21.95
2022-08-28T05:56:33.501Z,21.92
2022-08-28T05:57:40.940Z,21.90
2022-08-28T05:58:49.972Z,21.88
2022-08-28T05:59:56.124Z,21.87
2022-08-28T06:01:11.541Z,21.85
2022-08-28T06:02:20.423Z,21.83
2022-08-28T06:03:27.167Z,21.81
2022-08-28T06:04:36.527Z,21.79
2022-08-28T06:05:44.156Z,21.78
2022-08-28T06:06:52.314Z,21.78
2022-08-28T06:07:59.862Z,21.76
2022-08-28T06:09:25.346Z,21.75
2022-08-28T06:10:45.891Z,21.73
2022-08-28T06:12:02.204Z,21.70
2022-08-28T06:13:10.725Z,21.68
2022-08-28T06:14:21.364Z,21.66
2022-08-28T06:15:37.520Z,21.63
2022-08-28T06:16:46.171Z,21.59
2022-08-28T06:17:54.886Z,21.55
2022-08-28T06:19:02.625Z,21.54
2022-08-28T06:20:09.724Z,21.52
2022-08-28T06:21:16.566Z,21.52
2022-08-28T06:22:23.055Z,21.49
2022-08-28T06:23:29.667Z,21.48
2022-08-28T06:24:39.878Z,21.46
2022-08-28T06:25:50.277Z,21.44
2022-08-28T06:26:58.888Z,21.40
2022-08-28T06:28:06.251Z,21.38
2022-08-28T06:29:14.534Z,21.35
2022-08-28T06:30:22.032Z,21.33
2022-08-28T06:31:33.001Z,21.30
2022-08-28T06:32:40.825Z,21.28
2022-08-28T06:33:47.852Z,21.27
2022-08-28T06:34:58.241Z,21.26
2022-08-28T06:36:04.845Z,21.24
2022-08-28T06:37:12.297Z,21.21
2022-08-28T06:38:19.615Z,21.20
2022-08-28T06:39:25.782Z,21.19
2022-08-28T06:40:32.926Z,21.16
2022-08-28T06:41:45.251Z,21.13
2022-08-28T06:42:59.250Z,21.10
2022-08-28T06:44:05.185Z,21.08
2022-08-28T06:45:11.713Z,21.06
2022-08-28T06:46:18.388Z,21.05
2022-08-28T06:47:25.956Z,21.05
2022-08-28T06:48:33.045Z,21.03
2022-08-28T06:49:39.924Z,21.00
2022-08-28T06:50:57.067Z,20.96
2022-08-28T06:52:04.127Z,20.94
2022-08-28T06:53:11.388Z,20.92
2022-08-28T06:54:22.599Z,20.89
2022-08-28T06:55:31.842Z,20.87
2022-08-28T06:56:43.351Z,20.85
2022-08-28T06:57:50.615Z,20.84
2022-08-28T06:59:00.248Z,20.84
2022-08-28T07:00:08.987Z,20.82
2022-08-28T07:01:24.272Z,20.81
2022-08-28T07:02:36.133Z,20.79
2022-08-28T07:03:44.911Z,20.77
2022-08-28T07:04:55.594Z,20.76
2022-08-28T07:06:02.550Z,20.74
2022-08-28T07:07:10.010Z,20.72
2022-08-28T07:08:29.407Z,20.69
2022-08-28T07:09:37.169Z,20.67
2022-08-28T07:10:48.566Z,20.66
2022-08-28T07:11:58.722Z,20.67
2022-08-28T07:13:06.693Z,20.65
2022-08-28T07:14:14.083Z,20.63
2022-08-28T07:15:21.953Z,20.60
2022-08-28T07:16:31.366Z,20.59
2022-08-28T07:17:37.229Z,20.57
2022-08-28T07:18:44.746Z,20.56
2022-08-28T07:19:52.425Z,20.55
2022-08-28T07:21:05.158Z,20.54
2022-08-28T07:22:14.375Z,20.53
2022-08-28T07:23:22.131Z,20.54
2022-08-28T07:24:27.971Z,20.53
2022-08-28T07:25:35.267Z,20.52
2022-08-28T07:26:42.032Z,20.51
2022-08-28T07:27:50.628Z,20.49
2022-08-28T07:29:09.681Z,20.47
2022-08-28T07:30:18.117Z,20.44
2022-08-28T07:31:28.610Z,20.44
2022-08-28T07:32:35.464Z,20.43
2022-08-28T07:33:41.927Z,20.43
2022-08-28T07:34:51.680Z,20.42
2022-08-28T07:35:59.804Z,20.41
2022-08-28T07:37:05.671Z,20.40
2022-08-28T07:38:12.604Z,20.39
2022-08-28T07:39:19.465Z,20.37
2022-08-28T07:40:26.166Z,20.35
2022-08-28T07:41:34.818Z,20.33
2022-08-28T07:43:04.248Z,20.32
2022-08-28T07:44:31.755Z,20.31
2022-08-28T07:45:41.499Z,20.30
2022-08-28T07:46:54.711Z,20.30
2022-08-28T07:48:07.538Z,20.29
2022-08-28T07:49:19.377Z,20.29
2022-08-28T07:50:26.209Z,20.27
2022-08-28T07:51:33.501Z,20.26
2022-08-28T07:52:42.035Z,20.25
2022-08-28T07:53:50.558Z,20.23
2022-08-28T07:55:01.502Z,20.22
2022-08-28T07:56:07.816Z,20.21
2022-08-28T07:57:14.786Z,20.18
2022-08-28T07:58:22.258Z,20.18
2022-08-28T07:59:36.540Z,20.17
2022-08-28T08:00:44.174Z,20.15
2022-08-28T08:01:53.506Z,20.13
2022-08-28T08:03:01.121Z,20.13
2022-08-28T08:04:10.925Z,20.11
2022-08-28T08:05:19.126Z,20.10
2022-08-28T08:06:31.018Z,20.07
2022-08-28T08:07:44.022Z,20.04
2022-08-28T08:08:55.467Z,20.02
2022-08-28T08:10:03.810Z,20.00
2022-08-28T08:11:16.763Z,19.98
2022-08-28T08:12:25.255Z,19.96
2022-08-28T08:13:39.550Z,19.95
2022-08-28T08:14:46.410Z,19.95
2022-08-28T08:15:52.506Z,19.93
2022-08-28T08:17:02.139Z,19.93
2022-08-28T08:18:07.885Z,19.91
2022-08-28T08:19:16.903Z,19.88
2022-08-28T08:20:23.987Z,19.87
2022-08-28T08:21:33.265Z,19.87
2022-08-28T08:22:39.163Z,19.85
2022-08-28T08:23:46.321Z,19.85
2022-08-28T08:24:55.905Z,19.84
2022-08-28T08:26:02.742Z,19.84
2022-08-28T08:27:11.044Z,19.83
2022-08-28T08:28:16.767Z,19.84
2022-08-28T08:29:23.823Z,19.83
2022-08-28T08:30:30.646Z,19.82
2022-08-28T08:31:39.036Z,19.81
2022-08-28T08:32:54.801Z,19.78
2022-08-28T08:34:05.214Z,19.77
2022-08-28T08:35:14.049Z,19.76
2022-08-28T08:36:21.268Z,19.77
2022-08-28T08:37:27.276Z,19.76
2022-08-28T08:38:33.114Z,19.75
2022-08-28T08:39:42.338Z,19.75
2022-08-28T08:40:49.012Z,19.75
2022-08-28T08:41:59.273Z,19.75
2022-08-28T08:43:06.305Z,19.75
2022-08-28T08:44:44.093Z,19.74
2022-08-28T08:45:53.212Z,19.71
2022-08-28T08:47:28.292Z,19.71
2022-08-28T08:48:35.382Z,19.69
2022-08-28T08:49:48.929Z,19.66
2022-08-28T08:50:55.308Z,19.64
2022-08-28T08:52:38.472Z,19.64
2022-08-28T08:53:59.440Z,19.62
2022-08-28T08:55:21.799Z,19.61
2022-08-28T08:56:34.911Z,19.61
2022-08-28T08:57:49.314Z,19.60
2022-08-28T08:59:02.066Z,19.60
2022-08-28T09:00:16.073Z,19.59
2022-08-28T09:01:50.750Z,19.56
2022-08-28T09:03:15.829Z,19.55
2022-08-28T09:04:56.359Z,19.53
2022-08-28T09:06:08.216Z,19.52
2022-08-28T09:07:21.895Z,19.52
2022-08-28T09:08:47.838Z,19.53
2022-08-28T09:09:58.758Z,19.52
2022-08-28T09:11:30.099Z,19.52
2022-08-28T09:13:02.059Z,19.52
2022-08-28T09:14:40.095Z,19.51
2022-08-28T09:15:50.866Z,19.51
2022-08-28T09:16:58.953Z,19.50
2022-08-28T09:18:26.455Z,19.50
2022-08-28T09:19:32.660Z,19.50
2022-08-28T09:20:40.303Z,19.50
2022-08-28T09:21:49.736Z,19.51
2022-08-28T09:22:56.876Z,19.51
2022-08-28T09:24:11.147Z,19.51
2022-08-28T09:25:55.184Z,19.49
2022-08-28T09:27:04.916Z,19.46
2022-08-28T09:28:11.987Z,19.45
2022-08-28T09:29:19.834Z,19.44
2022-08-28T09:30:32.949Z,19.44
2022-08-28T09:31:43.089Z,19.44
2022-08-28T09:33:01.691Z,19.42
2022-08-28T09:34:24.869Z,19.42
2022-08-28T09:35:36.410Z,19.42
2022-08-28T09:36:43.076Z,19.40
2022-08-28T09:37:52.178Z,19.40
2022-08-28T09:39:27.432Z,19.41
2022-08-28T09:40:56.519Z,19.39
2022-08-28T09:42:39.989Z,19.38
2022-08-28T09:43:52.437Z,19.35
2022-08-28T09:45:01.761Z,19.34
2022-08-28T09:46:22.389Z,19.33
2022-08-28T09:48:10.275Z,19.33
2022-08-28T09:49:19.352Z,19.30
2022-08-28T09:50:31.766Z,19.30
2022-08-28T09:51:41.174Z,19.30
2022-08-28T09:52:49.135Z,19.29
2022-08-28T09:54:01.885Z,19.28
2022-08-28T09:55:07.832Z,19.27
2022-08-28T09:56:18.200Z,19.27
2022-08-28T09:57:24.477Z,19.27
2022-08-28T09:58:49.585Z,19.26
2022-08-28T09:59:55.750Z,19.25
2022-08-28T10:01:26.418Z,19.23
2022-08-28T10:02:45.402Z,19.23
2022-08-28T10:04:10.868Z,19.22
2022-08-28T10:05:25.790Z,19.19
2022-08-28T10:06:37.684Z,19.17
2022-08-28T10:07:56.694Z,19.17
2022-08-28T10:09:39.986Z,19.17
2022-08-28T10:10:56.262Z,19.17
2022-08-28T10:12:28.477Z,19.14
2022-08-28T10:13:46.511Z,19.13
2022-08-28T10:15:20.313Z,19.14
2022-08-28T10:16:38.572Z,19.12
2022-08-28T10:17:58.880Z,19.10
2022-08-28T10:19:27.544Z,19.10
2022-08-28T10:20:43.008Z,19.08
2022-08-28T10:22:23.756Z,19.07
2022-08-28T10:23:40.027Z,19.05
2022-08-28T10:25:13.627Z,19.04
2022-08-28T10:26:40.921Z,19.03
2022-08-28T10:28:04.124Z,19.01
2022-08-28T10:29:25.756Z,19.00
2022-08-28T10:30:34.833Z,19.00
2022-08-28T10:32:39.881Z,18.99
2022-08-28T10:34:23.723Z,18.98
2022-08-28T10:35:42.605Z,18.95
2022-08-28T10:36:56.607Z,18.94
2022-08-28T10:38:33.528Z,18.94
2022-08-28T10:39:49.136Z,18.94
2022-08-28T10:41:39.661Z,18.94
2022-08-28T10:42:57.981Z,18.93
2022-08-28T10:44:03.829Z,18.94
2022-08-28T10:45:25.547Z,18.94
2022-08-28T10:46:35.860Z,18.94
2022-08-28T10:47:43.407Z,18.94
2022-08-28T10:49:01.551Z,18.95
2022-08-28T10:50:50.004Z,18.96
2022-08-28T10:52:02.140Z,18.95
2022-08-28T10:53:33.647Z,18.95
2022-08-28T10:54:41.142Z,18.94
2022-08-28T10:56:24.484Z,18.95
2022-08-28T10:57:44.251Z,18.94
2022-08-28T10:58:56.171Z,18.92
2022-08-28T11:00:08.946Z,18.91
2022-08-28T11:01:16.639Z,18.89
2022-08-28T11:02:26.144Z,18.88
2022-08-28T11:03:48.276Z,18.87
2022-08-28T11:04:58.549Z,18.87
2022-08-28T11:06:35.956Z,18.87
2022-08-28T11:08:07.738Z,18.85
2022-08-28T11:09:38.916Z,18.83
2022-08-28T11:10:50.317Z,18.82
2022-08-28T11:12:10.486Z,18.82
2022-08-28T11:13:55.932Z,18.83
2022-08-28T11:15:02.020Z,18.81
2022-08-28T11:16:20.639Z,18.81
2022-08-28T11:17:29.255Z,18.80
2022-08-28T11:18:58.175Z,18.80
2022-08-28T11:20:25.987Z,18.80
2022-08-28T11:21:55.784Z,18.79
2022-08-28T11:23:17.562Z,18.78
2022-08-28T11:24:49.954Z,18.77
2022-08-28T11:26:00.786Z,18.75
2022-08-28T11:27:26.322Z,18.75
2022-08-28T11:28:36.549Z,18.75
2022-08-28T11:30:19.924Z,18.75
2022-08-28T11:31:31.254Z,18.74
2022-08-28T11:32:55.963Z,18.73
2022-08-28T11:34:06.029Z,18.73
2022-08-28T11:35:47.579Z,18.74
2022-08-28T11:36:58.352Z,18.72
2022-08-28T11:38:05.092Z,18.73
2022-08-28T11:39:19.115Z,18.73
2022-08-28T11:40:39.724Z,18.73
2022-08-28T11:42:22.443Z,18.73
2022-08-28T11:43:31.995Z,18.72
2022-08-28T11:44:46.476Z,18.72
2022-08-28T11:45:57.250Z,18.73
2022-08-28T11:47:44.804Z,18.73
2022-08-28T11:48:54.775Z,18.71
2022-08-28T11:50:26.228Z,18.70
2022-08-28T11:51:54.302Z,18.69
2022-08-28T11:53:30.960Z,18.69
2022-08-28T11:55:07.285Z,18.69
2022-08-28T11:56:34.665Z,18.68
2022-08-28T11:59:19.234Z,18.68
2022-08-28T12:00:54.454Z,18.67
2022-08-28T12:02:38.923Z,18.66
2022-08-28T12:04:08.578Z,18.65
2022-08-28T12:05:16.820Z,18.65
2022-08-28T12:06:47.602Z,18.65
2022-08-28T12:07:56.819Z,18.63
2022-08-28T12:09:03.566Z,18.63
2022-08-28T12:10:27.403Z,18.63
2022-08-28T12:11:43.599Z,18.63
2022-08-28T12:12:51.839Z,18.64
2022-08-28T12:14:01.160Z,18.63
2022-08-28T12:15:09.679Z,18.62
2022-08-28T12:16:16.966Z,18.61
2022-08-28T12:17:40.114Z,18.62
2022-08-28T12:18:49.503Z,18.62
2022-08-28T12:20:41.136Z,18.63
2022-08-28T12:21:49.002Z,18.62
2022-08-28T12:22:58.773Z,18.62
2022-08-28T12:24:14.613Z,18.63
2022-08-28T12:25:38.115Z,18.63
2022-08-28T12:26:47.773Z,18.62
2022-08-28T12:27:56.793Z,18.62
2022-08-28T12:29:05.968Z,18.61
2022-08-28T12:30:12.751Z,18.63
2022-08-28T12:31:57.061Z,18.64
2022-08-28T12:33:12.948Z,18.62
2022-08-28T12:34:48.090Z,18.60
2022-08-28T12:36:07.658Z,18.61
2022-08-28T12:37:26.515Z,18.62
2022-08-28T12:38:34.306Z,18.63
2022-08-28T12:39:41.276Z,18.64
2022-08-28T12:40:52.104Z,18.65
2022-08-28T12:42:00.849Z,18.65
2022-08-28T12:43:15.388Z,18.67
2022-08-28T12:44:28.467Z,18.68
2022-08-28T12:46:18.986Z,18.69
2022-08-28T12:47:28.685Z,18.71
2022-08-28T12:48:49.666Z,18.72
2022-08-28T12:49:57.151Z,18.72
2022-08-28T12:51:14.558Z,18.74
2022-08-28T12:52:24.535Z,18.74
2022-08-28T12:53:39.465Z,18.77
2022-08-28T12:54:47.246Z,18.79
2022-08-28T12:55:53.042Z,18.80
2022-08-28T12:57:00.195Z,18.83
2022-08-28T12:58:06.937Z,18.85
2022-08-28T12:59:39.469Z,18.88
2022-08-28T13:01:02.302Z,18.91
2022-08-28T13:02:12.622Z,18.93
2022-08-28T13:03:19.177Z,18.96
2022-08-28T13:04:36.231Z,18.98
2022-08-28T13:05:43.166Z,18.99
2022-08-28T13:06:49.745Z,19.01
2022-08-28T13:07:55.823Z,19.03
2022-08-28T13:09:23.473Z,19.04
2022-08-28T13:10:57.751Z,19.04
2022-08-28T13:12:03.887Z,19.07
2022-08-28T13:13:11.629Z,19.09
2022-08-28T13:14:36.780Z,19.11
2022-08-28T13:15:45.758Z,19.12
2022-08-28T13:16:52.203Z,19.14
2022-08-28T13:17:58.717Z,19.16
2022-08-28T13:19:07.592Z,19.19
2022-08-28T13:20:37.415Z,19.20
2022-08-28T13:21:52.663Z,19.23
2022-08-28T13:22:58.987Z,19.26
2022-08-28T13:24:23.214Z,19.28
2022-08-28T13:25:36.026Z,19.32
2022-08-28T13:26:44.514Z,19.34
2022-08-28T13:28:03.562Z,19.31
2022-08-28T13:29:20.083Z,19.31
2022-08-28T13:30:39.201Z,19.35
2022-08-28T13:31:45.267Z,19.37
2022-08-28T13:33:05.407Z,19.37
2022-08-28T13:34:28.452Z,19.34
2022-08-28T13:35:41.417Z,19.34
2022-08-28T13:36:58.626Z,19.38
2022-08-28T13:38:17.440Z,19.42
2022-08-28T13:39:25.417Z,19.39
2022-08-28T13:42:13.887Z,19.39
2022-08-28T13:43:20.410Z,19.42
2022-08-28T13:44:57.805Z,19.46
2022-08-28T13:46:07.373Z,19.47
2022-08-28T13:47:16.375Z,19.46
2022-08-28T13:48:26.675Z,19.46
2022-08-28T13:49:33.599Z,19.51
2022-08-28T13:50:41.114Z,19.50
2022-08-28T13:51:47.602Z,19.52
2022-08-28T13:52:56.753Z,19.57
2022-08-28T13:54:02.875Z,19.60
2022-08-28T13:55:12.355Z,19.63
2022-08-28T13:56:18.783Z,19.66
2022-08-28T13:57:29.695Z,19.69
2022-08-28T13:58:38.639Z,19.73
2022-08-28T13:59:45.524Z,19.76
2022-08-28T14:00:55.624Z,19.79
2022-08-28T14:02:29.242Z,19.82
2022-08-28T14:03:39.637Z,19.83
2022-08-28T14:04:50.275Z,19.80
2022-08-28T14:05:59.070Z,19.80
2022-08-28T14:07:08.294Z,19.84
2022-08-28T14:08:14.346Z,19.89
2022-08-28T14:09:22.007Z,19.92
2022-08-28T14:10:29.870Z,19.95
2022-08-28T14:11:37.617Z,19.98
2022-08-28T14:12:48.283Z,20.02
2022-08-28T14:13:56.055Z,20.03
2022-08-28T14:15:05.172Z,20.06
2022-08-28T14:16:13.876Z,20.12
2022-08-28T14:17:24.967Z,20.11
2022-08-28T14:18:32.117Z,20.12
2022-08-28T14:19:39.177Z,20.13
2022-08-28T14:20:45.671Z,20.17
2022-08-28T14:21:54.091Z,20.22
2022-08-28T14:23:04.227Z,20.25
2022-08-28T14:24:10.578Z,20.29
2022-08-28T14:25:18.765Z,20.34
2022-08-28T14:26:27.287Z,20.34
2022-08-28T14:27:34.228Z,20.35
2022-08-28T14:28:44.380Z,20.39
2022-08-28T14:29:51.046Z,20.42
2022-08-28T14:30:58.292Z,20.46
2022-08-28T14:32:06.840Z,20.43
2022-08-28T14:33:19.220Z,20.45
2022-08-28T14:34:33.634Z,20.44
2022-08-28T14:35:42.700Z,20.44
2022-08-28T14:36:56.014Z,20.47
2022-08-28T14:38:03.964Z,20.50
2022-08-28T14:39:13.885Z,20.49
2022-08-28T14:40:22.334Z,20.47
2022-08-28T14:41:30.786Z,20.49
2022-08-28T14:42:39.318Z,20.49
2022-08-28T14:43:46.561Z,20.52
2022-08-28T14:44:56.745Z,20.55
2022-08-28T14:46:08.432Z,20.59
2022-08-28T14:47:18.178Z,20.64
2022-08-28T14:48:24.666Z,20.66
2022-08-28T14:49:34.578Z,20.69
2022-08-28T14:50:42.988Z,20.73
2022-08-28T14:51:50.401Z,20.74
2022-08-28T14:52:58.107Z,20.76
2022-08-28T14:54:04.967Z,20.80
2022-08-28T14:55:15.268Z,20.84
2022-08-28T14:56:25.809Z,20.88
2022-08-28T14:57:32.935Z,20.92
2022-08-28T14:58:42.964Z,20.95
2022-08-28T14:59:50.441Z,21.03
2022-08-28T15:01:01.539Z,21.02
2022-08-28T15:02:08.377Z,21.06
2022-08-28T15:03:16.100Z,21.09
2022-08-28T15:04:24.490Z,21.03
2022-08-28T15:05:31.367Z,20.96
2022-08-28T15:06:39.116Z,20.95
2022-08-28T15:07:47.663Z,20.97
2022-08-28T15:08:55.420Z,21.03
2022-08-28T15:10:03.204Z,21.07
2022-08-28T15:11:14.237Z,21.13
2022-08-28T15:12:26.874Z,21.18
2022-08-28T15:13:35.521Z,21.19
2022-08-28T15:14:51.366Z,21.23
2022-08-28T15:16:16.003Z,21.26
2022-08-28T15:17:33.997Z,21.27
2022-08-28T15:18:41.454Z,21.31
2022-08-28T15:19:48.804Z,21.35
2022-08-28T15:20:56.012Z,21.36
2022-08-28T15:22:05.049Z,21.34
2022-08-28T15:23:14.394Z,21.33
2022-08-28T15:24:22.964Z,21.36
2022-08-28T15:25:30.608Z,21.33
2022-08-28T15:26:38.020Z,21.38
2022-08-28T15:27:45.708Z,21.40
2022-08-28T15:28:57.117Z,21.45
2022-08-28T15:30:04.389Z,21.56
2022-08-28T15:31:10.812Z,21.60
2022-08-28T15:32:17.339Z,21.62
2022-08-28T15:33:24.829Z,21.70
2022-08-28T15:34:33.500Z,21.68
2022-08-28T15:35:40.970Z,21.73
2022-08-28T15:36:54.710Z,21.73
2022-08-28T15:38:04.131Z,21.70
2022-08-28T15:39:29.957Z,21.67
2022-08-28T15:40:59.666Z,21.61
2022-08-28T15:42:07.105Z,21.61
2022-08-28T15:43:15.953Z,21.64
2022-08-28T15:44:21.986Z,21.73
2022-08-28T15:45:28.734Z,21.74
2022-08-28T15:46:36.499Z,21.69
2022-08-28T15:47:43.938Z,21.73
2022-08-28T15:48:51.349Z,21.83
2022-08-28T15:50:01.476Z,21.99
2022-08-28T15:51:07.717Z,22.15
2022-08-28T15:52:15.017Z,22.21
2022-08-28T15:53:21.971Z,22.26
2022-08-28T15:54:28.797Z,22.28
2022-08-28T15:55:36.674Z,22.32
2022-08-28T15:56:43.101Z,22.36
2022-08-28T15:57:50.341Z,22.45
2022-08-28T15:58:57.453Z,22.50
2022-08-28T16:00:10.370Z,22.48
2022-08-28T16:01:19.660Z,22.51
2022-08-28T16:02:25.974Z,22.55
2022-08-28T16:03:33.109Z,22.65
2022-08-28T16:04:39.223Z,22.75
2022-08-28T16:05:48.914Z,22.82
2022-08-28T16:07:00.678Z,22.94
2022-08-28T16:08:08.807Z,23.06
2022-08-28T16:09:15.589Z,23.09
2022-08-28T16:10:23.301Z,23.08
2022-08-28T16:11:31.865Z,23.09
2022-08-28T16:12:41.602Z,23.11
2022-08-28T16:13:47.995Z,23.14
2022-08-28T16:14:54.040Z,23.17
2022-08-28T16:16:02.146Z,23.19
2022-08-28T16:17:11.565Z,23.26
2022-08-28T16:18:17.596Z,23.33
2022-08-28T16:19:27.675Z,23.31
2022-08-28T16:20:34.307Z,23.29
2022-08-28T16:21:44.432Z,23.33
2022-08-28T16:22:53.214Z,23.48
2022-08-28T16:24:03.240Z,23.59
2022-08-28T16:25:13.799Z,23.66
2022-08-28T16:26:21.898Z,23.70
2022-08-28T16:27:29.651Z,23.79
2022-08-28T16:28:36.573Z,23.93
2022-08-28T16:29:46.823Z,23.95
2022-08-28T16:30:59.974Z,23.97
2022-08-28T16:32:08.791Z,24.06
2022-08-28T16:33:21.361Z,24.11
2022-08-28T16:34:31.605Z,24.19
2022-08-28T16:35:49.379Z,24.18
2022-08-28T16:37:06.030Z,24.18
2022-08-28T16:38:15.389Z,24.28
2022-08-28T16:39:22.681Z,24.35
2022-08-28T16:40:29.784Z,24.39
2022-08-28T16:41:39.071Z,24.36
2022-08-28T16:42:51.490Z,24.39
2022-08-28T16:44:01.379Z,24.50
2022-08-28T16:45:10.488Z,24.50
2022-08-28T16:46:20.953Z,24.52
2022-08-28T16:47:28.354Z,24.65
2022-08-28T16:48:40.166Z,24.65
2022-08-28T16:49:46.490Z,24.63
2022-08-28T16:50:54.544Z,24.72
2022-08-28T16:52:05.199Z,24.86
2022-08-28T16:53:13.480Z,25.12
2022-08-28T16:54:20.114Z,25.41
2022-08-28T16:55:27.152Z,25.82
2022-08-28T16:56:38.247Z,26.22
2022-08-28T16:57:48.403Z,26.45
2022-08-28T16:59:23.530Z,26.55
2022-08-28T17:00:44.348Z,26.73
2022-08-28T17:02:03.165Z,27.00
2022-08-28T17:03:13.576Z,27.16
2022-08-28T17:04:22.318Z,27.26
2022-08-28T17:05:31.190Z,27.27
2022-08-28T17:06:39.215Z,27.13